createdAt,value
2023-04-29T00:02:36.196Z,20.5
2023-04-29T00:05:25.163Z,20.8
2023-04-29T00:08:12.747Z,21.5
2023-04-29T00:11:00.192Z,21
2023-04-29T00:13:47.841Z,21.6
2023-04-29T00:16:35.277Z,21.2
2023-04-29T00:19:23.048Z,21.6
2023-04-29T00:22:10.338Z,21.4
2023-04-29T00:24:58.196Z,21.5
2023-04-29T00:27:45.558Z,21.2
2023-04-29T00:30:33.057Z,21.1
2023-04-29T00:33:21.079Z,21.6
2023-04-29T00:36:08.579Z,21.4
2023-04-29T00:38:55.834Z,21.4
2023-04-29T00:41:44.178Z,22.4
2023-04-29T00:44:31.629Z,21.9
2023-04-29T00:47:19.076Z,21.3
2023-04-29T00:50:06.827Z,21.4
2023-04-29T00:52:54.783Z,21.2
2023-04-29T00:55:42.244Z,22
2023-04-29T00:58:31.428Z,22.2
2023-04-29T01:01:20.034Z,23.5
2023-04-29T01:04:09.299Z,26.6
2023-04-29T01:06:56.815Z,30.6
2023-04-29T01:09:55.674Z,33.1
2023-04-29T01:12:52.768Z,35.4
2023-04-29T01:15:50.586Z,38.9
2023-04-29T01:18:46.851Z,41
2023-04-29T01:21:39.338Z,43.8
2023-04-29T01:24:33.333Z,44.2
2023-04-29T01:27:20.669Z,45.5
2023-04-29T01:30:16.767Z,46.5
2023-04-29T01:33:13.505Z,47.4
2023-04-29T01:36:08.128Z,48.2
2023-04-29T01:39:08.823Z,47.9
2023-04-29T01:42:01.938Z,48.4
2023-04-29T01:44:59.782Z,48
2023-04-29T01:47:51.680Z,49.7
2023-04-29T01:50:40.503Z,50.4
2023-04-29T01:53:27.844Z,50.9
2023-04-29T01:56:15.829Z,50.5
2023-04-29T01:59:03.220Z,51.4
2023-04-29T02:01:50.539Z,51.6
2023-04-29T02:04:38.252Z,51.7
2023-04-29T02:07:25.574Z,52.9
2023-04-29T02:10:13.053Z,52.3
2023-04-29T02:13:00.362Z,52.3
2023-04-29T02:15:47.820Z,52.7
2023-04-29T02:18:35.238Z,53.1
2023-04-29T02:21:23.691Z,53.5
2023-04-29T02:24:11.720Z,54.2
2023-04-29T02:26:59.066Z,54.6
2023-04-29T02:29:50.497Z,54.5
2023-04-29T02:32:38.262Z,56.2
2023-04-29T02:35:25.931Z,57.4
2023-04-29T02:38:13.298Z,56
2023-04-29T02:41:00.806Z,55.7
2023-04-29T02:43:48.341Z,56.6
2023-04-29T02:46:35.627Z,58.2
2023-04-29T02:49:25.451Z,60.9
2023-04-29T02:52:12.802Z,64.1
2023-04-29T02:55:01.610Z,56.1
2023-04-29T02:57:50.240Z,51.5
2023-04-29T03:00:38.121Z,54
2023-04-29T03:03:26.885Z,55.9
2023-04-29T03:06:14.412Z,58.1
2023-04-29T03:09:01.852Z,60
2023-04-29T03:11:49.345Z,59.9
2023-04-29T03:14:37.703Z,61.9
2023-04-29T03:17:25.597Z,61
2023-04-29T03:20:12.918Z,54.4
2023-04-29T03:23:00.346Z,55.3
2023-04-29T03:25:47.809Z,57
2023-04-29T03:28:37.957Z,59.2
2023-04-29T03:31:25.579Z,60.1
2023-04-29T03:34:13.305Z,60.5
2023-04-29T03:37:00.525Z,61.9
2023-04-29T03:39:48.003Z,62.8
2023-04-29T03:42:35.380Z,60
2023-04-29T03:45:23.413Z,53.7
2023-04-29T03:48:10.727Z,53.8
2023-04-29T03:50:59.105Z,55.5
2023-04-29T03:53:46.449Z,57.8
2023-04-29T03:56:34.323Z,58.8
2023-04-29T03:59:22.453Z,60.6
2023-04-29T04:02:09.917Z,62.3
2023-04-29T04:04:57.350Z,62.1
2023-04-29T04:07:50.318Z,53.5
2023-04-29T04:10:38.233Z,53.4
2023-04-29T04:13:25.545Z,56.2
2023-04-29T04:16:12.833Z,59
2023-04-29T04:19:00.222Z,60.4
2023-04-29T04:21:47.653Z,61.2
2023-04-29T04:24:35.272Z,64.5
2023-04-29T04:27:22.897Z,58.5
2023-04-29T04:30:10.373Z,55.6
2023-04-29T04:32:58.411Z,57.2
2023-04-29T04:35:46.301Z,58.6
2023-04-29T04:38:33.596Z,61.3
2023-04-29T04:41:21.379Z,63.3
2023-04-29T04:44:08.856Z,60.3
2023-04-29T04:46:56.785Z,54.5
2023-04-29T04:49:45.796Z,55.9
2023-04-29T04:52:34.541Z,58
2023-04-29T04:55:22.144Z,60
2023-04-29T04:58:09.709Z,62.6
2023-04-29T05:00:57.395Z,61.3
2023-04-29T05:03:45.084Z,55.1
2023-04-29T05:06:32.763Z,56.1
2023-04-29T05:09:20.338Z,57.4
2023-04-29T05:12:08.007Z,59.4
2023-04-29T05:14:55.470Z,61.2
2023-04-29T05:17:43.129Z,63.1
2023-04-29T05:20:30.542Z,56
2023-04-29T05:23:17.970Z,54.5
2023-04-29T05:26:05.816Z,56.1
2023-04-29T05:28:53.224Z,58.7
2023-04-29T05:31:40.654Z,60.3
2023-04-29T05:34:28.051Z,61.9
2023-04-29T05:37:15.487Z,62.1
2023-04-29T05:40:03.119Z,54.3
2023-04-29T05:42:52.811Z,54.5
2023-04-29T05:45:40.347Z,56.9
2023-04-29T05:48:27.763Z,59.4
2023-04-29T05:51:15.051Z,59.6
2023-04-29T05:54:02.750Z,60.9
2023-04-29T05:56:50.307Z,61.7
2023-04-29T05:59:38.158Z,62.7
2023-04-29T06:02:26.403Z,54
2023-04-29T06:05:14.420Z,52.9
2023-04-29T06:08:02.113Z,53.6
2023-04-29T06:10:51.061Z,56.2
2023-04-29T06:13:38.388Z,56.7
2023-04-29T06:16:25.859Z,58.9
2023-04-29T06:19:13.697Z,59.9
2023-04-29T06:22:01.080Z,60.8
2023-04-29T06:24:48.389Z,59.3
2023-04-29T06:27:37.422Z,56.3
2023-04-29T06:30:25.086Z,56.5
2023-04-29T06:33:12.713Z,58.2
2023-04-29T06:36:00.270Z,60.5
2023-04-29T06:38:47.851Z,60.5
2023-04-29T06:41:35.178Z,62
2023-04-29T06:44:22.800Z,61.8
2023-04-29T06:47:10.549Z,54.9
2023-04-29T06:49:57.959Z,54
2023-04-29T06:52:45.498Z,54.8
2023-04-29T06:55:33.807Z,56.9
2023-04-29T06:58:21.198Z,58.2
2023-04-29T07:01:08.787Z,60.4
2023-04-29T07:03:57.411Z,61.2
2023-04-29T07:06:45.027Z,62.3
2023-04-29T07:09:32.804Z,57.4
2023-04-29T07:12:20.217Z,53.8
2023-04-29T07:15:07.536Z,54.7
2023-04-29T07:17:55.844Z,55.8
2023-04-29T07:20:43.219Z,58.1
2023-04-29T07:23:32.003Z,60.1
2023-04-29T07:26:19.442Z,59.7
2023-04-29T07:29:06.974Z,60.1
2023-04-29T07:31:54.278Z,61.6
2023-04-29T07:34:41.866Z,58.2
2023-04-29T07:37:29.749Z,54.3
2023-04-29T07:40:17.268Z,55.4
2023-04-29T07:43:04.698Z,57
2023-04-29T07:45:53.791Z,58.4
2023-04-29T07:48:41.342Z,58.7
2023-04-29T07:51:29.721Z,59.3
2023-04-29T07:54:17.428Z,59.3
2023-04-29T07:57:04.909Z,60.2
2023-04-29T07:59:52.328Z,60.4
2023-04-29T08:02:40.201Z,60.7
2023-04-29T08:05:28.851Z,60.1
2023-04-29T08:08:16.601Z,61.2
2023-04-29T08:11:04.077Z,59.8
2023-04-29T08:13:51.752Z,60.7
2023-04-29T08:16:41.725Z,59.6
2023-04-29T08:19:29.279Z,60.5
2023-04-29T08:22:16.664Z,60
2023-04-29T08:25:04.111Z,60.2
2023-04-29T08:27:52.619Z,60.3
2023-04-29T08:30:39.981Z,59.3
2023-04-29T08:33:27.387Z,60.3
2023-04-29T08:36:14.854Z,58.6
2023-04-29T08:39:02.355Z,58
2023-04-29T08:41:50.066Z,58.5
2023-04-29T08:44:38.684Z,60.2
2023-04-29T08:47:26.768Z,59.3
2023-04-29T08:50:15.916Z,59.5
2023-04-29T08:53:03.568Z,59.4
2023-04-29T08:55:52.382Z,60
2023-04-29T08:58:43.093Z,60.1
2023-04-29T09:01:31.092Z,60.8
2023-04-29T09:04:21.585Z,59.6
2023-04-29T09:07:18.300Z,59.1
2023-04-29T09:10:06.318Z,59.3
2023-04-29T09:12:55.341Z,58.8
2023-04-29T09:15:43.438Z,58.5
2023-04-29T09:18:31.029Z,58.9
2023-04-29T09:21:35.212Z,56.9
2023-04-29T09:24:22.707Z,57.1
2023-04-29T09:27:11.564Z,56.5
2023-04-29T09:30:12.473Z,56.5
2023-04-29T09:33:01.492Z,55.7
2023-04-29T09:35:51.357Z,54.2
2023-04-29T09:38:38.858Z,54
2023-04-29T09:41:39.752Z,54.7
2023-04-29T09:44:42.549Z,53.7
2023-04-29T09:47:30.131Z,54
2023-04-29T09:50:18.097Z,51.9
2023-04-29T09:53:06.219Z,52
2023-04-29T09:55:55.707Z,51.4
2023-04-29T09:58:45.948Z,50.9
2023-04-29T10:01:35.007Z,50.5
2023-04-29T10:04:22.996Z,50.7
2023-04-29T10:07:12.467Z,50.8
2023-04-29T10:10:00.885Z,50
2023-04-29T10:12:52.072Z,49.1
2023-04-29T10:15:40.239Z,49.1
2023-04-29T10:18:37.911Z,48.6
2023-04-29T10:21:29.842Z,47.8
2023-04-29T10:24:17.407Z,48.4
2023-04-29T10:27:07.181Z,48.2
2023-04-29T10:29:57.791Z,48.4
2023-04-29T10:32:51.737Z,47.7
2023-04-29T10:35:41.828Z,47.5
2023-04-29T10:38:29.752Z,47.4
2023-04-29T10:41:22.383Z,48.3
2023-04-29T10:44:13.442Z,49.1
2023-04-29T10:47:01.164Z,49.9
2023-04-29T10:50:07.444Z,50.1
2023-04-29T10:52:55.605Z,50.7
2023-04-29T10:55:46.757Z,51
2023-04-29T10:58:39.645Z,51.2
2023-04-29T11:01:29.235Z,51.5
2023-04-29T11:04:35.073Z,51.6
2023-04-29T11:07:52.386Z,51.7
2023-04-29T11:10:55.364Z,52.9
2023-04-29T11:13:47.052Z,52.7
2023-04-29T11:16:34.609Z,52.8
2023-04-29T11:19:22.558Z,53.1
2023-04-29T11:22:11.865Z,53.6
2023-04-29T11:25:12.237Z,55.3
2023-04-29T11:27:59.843Z,55.4
2023-04-29T11:30:48.687Z,55.5
2023-04-29T11:33:36.499Z,58.3
2023-04-29T11:36:24.809Z,58
2023-04-29T11:39:13.085Z,60.2
2023-04-29T11:42:02.328Z,57.8
2023-04-29T11:44:51.195Z,57.7
2023-04-29T11:47:41.735Z,57.3
2023-04-29T11:50:30.807Z,57.2
2023-04-29T11:53:20.981Z,56.4
2023-04-29T11:56:11.738Z,55.1
2023-04-29T11:58:59.251Z,54.9
2023-04-29T12:01:52.021Z,54.5
2023-04-29T12:04:40.152Z,52.9
2023-04-29T12:07:31.643Z,51.1
2023-04-29T12:10:19.043Z,51.6
2023-04-29T12:13:07.843Z,52.1
2023-04-29T12:15:57.184Z,51
2023-04-29T12:18:45.199Z,51.2
2023-04-29T12:21:32.800Z,49.7
2023-04-29T12:24:20.250Z,49.5
2023-04-29T12:27:08.411Z,49.4
2023-04-29T12:29:56.621Z,50.1
2023-04-29T12:32:44.028Z,50.1
2023-04-29T12:35:33.105Z,50.6
2023-04-29T12:38:20.917Z,51.4
2023-04-29T12:41:11.561Z,51.9
2023-04-29T12:44:01.902Z,52
2023-04-29T12:46:50.838Z,52.7
2023-04-29T12:49:38.578Z,53.4
2023-04-29T12:52:27.914Z,54.1
2023-04-29T12:55:15.241Z,54.2
2023-04-29T12:58:03.564Z,54.4
2023-04-29T13:00:54.087Z,54.3
2023-04-29T13:03:41.899Z,55
2023-04-29T13:06:29.463Z,55.4
2023-04-29T13:09:19.133Z,56.1
2023-04-29T13:12:06.706Z,56.1
2023-04-29T13:14:57.199Z,56
2023-04-29T13:17:45.402Z,54
2023-04-29T13:20:32.934Z,53
2023-04-29T13:23:20.289Z,53.5
2023-04-29T13:26:07.635Z,54
2023-04-29T13:28:56.809Z,54.2
2023-04-29T13:31:44.514Z,54.5
2023-04-29T13:34:32.230Z,55
2023-04-29T13:37:19.684Z,54.6
2023-04-29T13:40:07.510Z,54.6
2023-04-29T13:45:46.489Z,54.8
2023-04-29T13:49:14.241Z,55.9
2023-04-29T13:53:01.583Z,55.9
2023-04-29T14:04:49.740Z,59.3
2023-04-29T14:07:37.666Z,64.7
2023-04-29T14:10:25.944Z,63.2
2023-04-29T14:13:13.393Z,59.2
2023-04-29T14:16:02.320Z,59.1
2023-04-29T14:18:51.492Z,59.9
2023-04-29T14:21:38.756Z,63.4
2023-04-29T14:24:26.228Z,66.3
2023-04-29T14:27:13.482Z,55.3
2023-04-29T14:30:00.993Z,57.4
2023-04-29T14:32:50.198Z,59.9
2023-04-29T14:35:38.545Z,63.7
2023-04-29T14:38:25.977Z,61.9
2023-04-29T14:41:13.537Z,56
2023-04-29T14:44:01.309Z,56.5
2023-04-29T14:46:48.839Z,58.8
2023-04-29T14:49:36.538Z,62.8
2023-04-29T14:52:25.866Z,60.5
2023-04-29T14:55:13.364Z,55.2
2023-04-29T14:58:01.386Z,57.5
2023-04-29T15:00:49.651Z,60.3
2023-04-29T15:03:43.675Z,62.7
2023-04-29T15:06:32.353Z,63.8
2023-04-29T15:09:19.953Z,56.3
2023-04-29T15:12:08.035Z,55.8
2023-04-29T15:14:55.791Z,58.7
2023-04-29T15:17:43.659Z,61.4
2023-04-29T15:20:31.670Z,65.1
2023-04-29T15:23:19.286Z,58.6
2023-04-29T15:26:06.802Z,56.9
2023-04-29T15:28:55.011Z,59.1
2023-04-29T15:31:42.367Z,63.9
2023-04-29T15:34:29.699Z,60.2
2023-04-29T15:37:17.369Z,55.9
2023-04-29T15:40:04.929Z,58.6
2023-04-29T15:42:54.070Z,62.4
2023-04-29T15:45:41.445Z,60.6
2023-04-29T15:48:29.068Z,57.1
2023-04-29T15:51:16.538Z,59.3
2023-04-29T15:54:04.078Z,63.1
2023-04-29T15:56:52.247Z,61.3
2023-04-29T15:59:40.739Z,56.1
2023-04-29T16:02:28.172Z,58.2
2023-04-29T16:05:15.643Z,63.4
2023-04-29T16:08:03.022Z,60
2023-04-29T16:10:51.357Z,57.4
2023-04-29T16:13:39.212Z,59.6
2023-04-29T16:16:26.854Z,62.5
2023-04-29T16:19:15.267Z,60.9
2023-04-29T16:22:02.894Z,54.8
2023-04-29T16:24:50.521Z,57.7
2023-04-29T16:27:38.602Z,61
2023-04-29T16:30:26.071Z,64.8
2023-04-29T16:33:13.639Z,57.7
2023-04-29T16:36:01.240Z,55.7
2023-04-29T16:38:50.436Z,58.5
2023-04-29T16:41:38.959Z,62
2023-04-29T16:44:26.483Z,64
2023-04-29T16:47:14.023Z,57.3
2023-04-29T16:50:03.939Z,55.9
2023-04-29T16:52:53.659Z,59.7
2023-04-29T16:55:40.946Z,62.3
2023-04-29T16:58:28.413Z,61.8
2023-04-29T17:01:16.053Z,55.5
2023-04-29T17:04:04.031Z,57.3
2023-04-29T17:06:52.831Z,61.4
2023-04-29T17:09:40.447Z,63.8
2023-04-29T17:12:28.990Z,61.9
2023-04-29T17:15:17.630Z,56.2
2023-04-29T17:18:05.062Z,58
2023-04-29T17:20:52.539Z,60.2
2023-04-29T17:23:40.269Z,63
2023-04-29T17:26:27.536Z,61.5
2023-04-29T17:29:16.102Z,55.6
2023-04-29T17:32:03.819Z,57.5
2023-04-29T17:34:56.298Z,61.3
2023-04-29T17:37:44.487Z,65.3
2023-04-29T17:40:32.665Z,59
2023-04-29T17:43:20.584Z,56.5
2023-04-29T17:46:08.183Z,58.8
2023-04-29T17:48:55.627Z,62.2
2023-04-29T17:51:42.958Z,65.6
2023-04-29T17:54:30.312Z,59.4
2023-04-29T17:57:18.090Z,56.1
2023-04-29T18:00:05.661Z,59.2
2023-04-29T18:02:55.545Z,62.2
2023-04-29T18:05:42.985Z,61.9
2023-04-29T18:08:32.014Z,56.1
2023-04-29T18:11:19.705Z,59
2023-04-29T18:14:07.197Z,61.7
2023-04-29T18:16:55.581Z,62.7
2023-04-29T18:19:43.694Z,55.6
2023-04-29T18:22:33.821Z,57.8
2023-04-29T18:25:21.233Z,60.5
2023-04-29T18:31:01.085Z,60.1
2023-04-29T18:33:48.470Z,55.4
2023-04-29T18:36:36.099Z,57.5
2023-04-29T18:39:23.789Z,61.4
2023-04-29T18:42:11.280Z,63.9
2023-04-29T18:44:58.726Z,58
2023-04-29T18:47:46.266Z,55.6
2023-04-29T18:50:33.787Z,58.6
2023-04-29T18:53:21.322Z,62.6
2023-04-29T18:56:08.745Z,61.1
2023-04-29T18:58:56.315Z,56.4
2023-04-29T19:01:43.707Z,58.7
2023-04-29T19:04:31.449Z,62.5
2023-04-29T19:07:19.301Z,63.4
2023-04-29T19:10:06.863Z,55.7
2023-04-29T19:12:54.922Z,55.1
2023-04-29T19:15:42.352Z,58.1
2023-04-29T19:18:35.006Z,61.4
2023-04-29T19:21:22.281Z,64.6
2023-04-29T19:24:09.826Z,57.8
2023-04-29T19:26:58.083Z,55.4
2023-04-29T19:29:45.447Z,57.5
2023-04-29T19:32:32.864Z,60.5
2023-04-29T19:35:20.264Z,63.1
2023-04-29T19:38:07.886Z,60.9
2023-04-29T19:40:55.528Z,54.6
2023-04-29T19:43:43.253Z,56.5
2023-04-29T19:46:30.648Z,58.8
2023-04-29T19:49:18.323Z,59.5
2023-04-29T19:52:05.989Z,62.2
2023-04-29T19:54:53.359Z,60.9
2023-04-29T19:57:41.269Z,54.9
2023-04-29T20:00:28.821Z,55.1
2023-04-29T20:03:16.312Z,57.9
2023-04-29T20:06:03.795Z,60.5
2023-04-29T20:08:51.875Z,62.5
2023-04-29T20:11:39.251Z,60.6
2023-04-29T20:14:26.642Z,53.6
2023-04-29T20:17:14.716Z,56.6
2023-04-29T20:20:02.992Z,57.5
2023-04-29T20:22:53.542Z,60.5
2023-04-29T20:25:44.687Z,62.5
2023-04-29T20:28:32.105Z,60.5
2023-04-29T20:31:19.352Z,54.3
2023-04-29T20:34:08.462Z,55.6
2023-04-29T20:36:56.946Z,58.8
2023-04-29T20:39:44.405Z,60.4
2023-04-29T20:42:31.874Z,62.2
2023-04-29T20:45:19.642Z,59.3
2023-04-29T20:48:08.046Z,57.3
2023-04-29T20:50:55.326Z,58.2
2023-04-29T20:53:42.649Z,58.5
2023-04-29T20:56:30.355Z,61.2
2023-04-29T20:59:17.751Z,62
2023-04-29T21:02:05.226Z,54.8
2023-04-29T21:04:52.799Z,52.5
2023-04-29T21:07:40.160Z,53.9
2023-04-29T21:10:27.406Z,56.3
2023-04-29T21:13:14.731Z,59.3
2023-04-29T21:16:02.486Z,60.8
2023-04-29T21:18:50.472Z,62
2023-04-29T21:21:38.077Z,54.6
2023-04-29T21:24:25.775Z,53.3
2023-04-29T21:27:13.338Z,57
2023-04-29T21:30:00.834Z,57.9
2023-04-29T21:32:49.544Z,58.7
2023-04-29T21:35:38.372Z,60.9
2023-04-29T21:38:26.526Z,61.9
2023-04-29T21:41:13.919Z,59.2
2023-04-29T21:44:05.440Z,55.3
2023-04-29T21:46:53.242Z,56.5
2023-04-29T21:49:41.519Z,59.1
2023-04-29T21:52:28.870Z,60.9
2023-04-29T21:55:19.531Z,62.4
2023-04-29T21:58:07.003Z,64.2
2023-04-29T22:00:55.385Z,55.8
2023-04-29T22:03:45.994Z,53.1
2023-04-29T22:06:33.282Z,55.7
2023-04-29T22:09:22.204Z,56.5
2023-04-29T22:12:10.562Z,59.5
2023-04-29T22:14:57.971Z,60.9
2023-04-29T22:17:45.474Z,62.9
2023-04-29T22:20:32.833Z,60.1
2023-04-29T22:23:20.508Z,56.2
2023-04-29T22:26:07.788Z,56.9
2023-04-29T22:28:55.003Z,58.5
2023-04-29T22:31:42.511Z,60.2
2023-04-29T22:34:30.259Z,63.7
2023-04-29T22:37:17.684Z,59.5
2023-04-29T22:40:05.180Z,54.6
2023-04-29T22:42:53.863Z,55.9
2023-04-29T22:45:41.196Z,58.9
2023-04-29T22:48:35.877Z,61
2023-04-29T22:51:23.418Z,64.5
2023-04-29T22:54:11.302Z,60.5
2023-04-29T22:56:58.629Z,53.2
2023-04-29T22:59:46.035Z,55.1
2023-04-29T23:02:33.763Z,59
2023-04-29T23:05:21.294Z,60.1
2023-04-29T23:08:08.664Z,62.4
2023-04-29T23:10:56.066Z,62
2023-04-29T23:13:43.462Z,54.5
2023-04-29T23:16:30.913Z,54.5
2023-04-29T23:19:18.367Z,57.3
2023-04-29T23:22:05.927Z,59.8
2023-04-29T23:24:53.961Z,62.2
2023-04-29T23:27:41.283Z,65.1
2023-04-29T23:30:28.642Z,55.1
2023-04-29T23:33:17.400Z,53.9
2023-04-29T23:36:04.900Z,57.3
2023-04-29T23:38:52.495Z,60.3
2023-04-29T23:41:39.836Z,61.6
2023-04-29T23:44:27.120Z,64
2023-04-29T23:47:14.438Z,58
2023-04-29T23:50:02.527Z,55.4
2023-04-29T23:52:52.163Z,57.6
2023-04-29T23:55:39.495Z,58.8
2023-04-29T23:58:26.886Z,61.2
